createdAt,value
2023-02-03T00:01:12.982Z,17.85
2023-02-03T00:03:42.516Z,19.42
2023-02-03T00:06:11.885Z,18.52
2023-02-03T00:08:43.400Z,17.88
2023-02-03T00:11:12.608Z,18.63
2023-02-03T00:13:41.944Z,17.83
2023-02-03T00:16:22.024Z,17.00
2023-02-03T00:18:51.337Z,16.95
2023-02-03T00:21:20.473Z,17.25
2023-02-03T00:23:51.993Z,17.90
2023-02-03T00:26:21.191Z,18.20
2023-02-03T00:28:55.805Z,17.23
2023-02-03T00:31:26.669Z,17.58
2023-02-03T00:36:35.531Z,17.38
2023-02-03T00:39:12.021Z,18.08
2023-02-03T00:41:41.249Z,18.00
2023-02-03T00:44:10.456Z,18.60
2023-02-03T00:46:49.980Z,18.02
2023-02-03T00:49:30.159Z,18.67
2023-02-03T00:51:59.464Z,18.27
2023-02-03T00:54:32.634Z,18.33
2023-02-03T00:57:08.226Z,18.15
2023-02-03T00:59:37.550Z,19.38
2023-02-03T01:02:13.418Z,17.95
2023-02-03T01:04:53.648Z,19.40
2023-02-03T01:07:22.959Z,19.45
2023-02-03T01:09:55.286Z,19.63
2023-02-03T01:12:32.983Z,19.20
2023-02-03T01:15:02.356Z,19.42
2023-02-03T01:17:33.476Z,20.50
2023-02-03T01:20:02.752Z,20.15
2023-02-03T01:22:39.844Z,19.45
2023-02-03T01:25:12.850Z,19.15
2023-02-03T01:30:12.476Z,19.05
2023-02-03T01:32:41.684Z,18.52
2023-02-03T01:35:11.079Z,18.20
2023-02-03T01:37:45.270Z,19.42
2023-02-03T01:42:51.326Z,19.33
2023-02-03T01:45:30.950Z,18.65
2023-02-03T01:48:06.201Z,19.75
2023-02-03T01:50:38.327Z,18.90
2023-02-03T01:53:13.628Z,18.70
2023-02-03T01:55:48.689Z,18.50
2023-02-03T01:58:24.304Z,18.25
2023-02-03T02:00:57.069Z,19.02
2023-02-03T02:03:29.737Z,19.30
2023-02-03T02:06:05.668Z,18.05
2023-02-03T02:08:35.257Z,18.20
2023-02-03T02:11:07.287Z,17.30
2023-02-03T02:13:39.556Z,18.45
2023-02-03T02:19:02.265Z,16.23
2023-02-03T02:21:50.897Z,18.88
2023-02-03T02:24:50.480Z,19.60
2023-02-03T02:27:34.144Z,18.10
2023-02-03T02:30:43.509Z,17.95
2023-02-03T02:33:21.083Z,18.27
2023-02-03T02:35:59.432Z,18.33
2023-02-03T02:38:48.764Z,19.15
2023-02-03T02:41:25.031Z,18.80
2023-02-03T02:44:03.403Z,18.45
2023-02-03T02:46:40.542Z,18.88
2023-02-03T02:49:18.433Z,18.60
2023-02-03T02:51:50.459Z,19.67
2023-02-03T02:54:23.687Z,18.20
2023-02-03T02:56:57.523Z,17.33
2023-02-03T02:59:31.927Z,18.48
2023-02-03T03:02:01.770Z,19.10
2023-02-03T03:04:35.833Z,18.98
2023-02-03T03:07:10.247Z,18.33
2023-02-03T03:09:44.927Z,18.02
2023-02-03T03:12:18.877Z,18.45
2023-02-03T03:14:57.098Z,18.65
2023-02-03T03:17:29.804Z,18.90
2023-02-03T03:20:11.375Z,19.55
2023-02-03T03:22:45.951Z,17.80
2023-02-03T03:25:19.192Z,19.13
2023-02-03T03:27:53.892Z,19.27
2023-02-03T03:33:07.520Z,20.48
2023-02-03T03:35:49.383Z,19.13
2023-02-03T03:38:25.333Z,18.83
2023-02-03T03:41:01.108Z,18.88
2023-02-03T03:43:33.906Z,19.58
2023-02-03T03:46:06.833Z,19.63
2023-02-03T03:48:47.340Z,20.27
2023-02-03T03:51:22.375Z,19.13
2023-02-03T03:53:54.004Z,19.38
2023-02-03T03:56:34.533Z,18.67
2023-02-03T03:59:10.806Z,20.10
2023-02-03T04:01:41.179Z,20.40
2023-02-03T04:04:13.216Z,19.90
2023-02-03T04:09:13.335Z,19.15
2023-02-03T04:11:55.444Z,19.80
2023-02-03T04:14:24.898Z,21.27
2023-02-03T04:16:53.971Z,21.27
2023-02-03T04:19:23.196Z,20.73
2023-02-03T04:21:54.700Z,20.92
2023-02-03T04:24:23.916Z,21.77
2023-02-03T04:26:52.998Z,20.38
2023-02-03T04:29:22.300Z,20.52
2023-02-03T04:31:51.536Z,21.15
2023-02-03T04:34:20.763Z,22.20
2023-02-03T04:37:02.372Z,20.77
2023-02-03T04:39:31.522Z,21.13
2023-02-03T04:42:01.093Z,20.30
2023-02-03T04:44:30.521Z,22.10
2023-02-03T04:47:07.673Z,21.80
2023-02-03T04:49:36.851Z,22.10
2023-02-03T04:52:08.537Z,20.52
2023-02-03T04:54:37.829Z,22.13
2023-02-03T04:57:07.422Z,20.95
2023-02-03T04:59:36.631Z,20.58
2023-02-03T05:02:05.912Z,21.17
2023-02-03T05:04:35.058Z,21.83
2023-02-03T05:07:04.503Z,21.35
2023-02-03T05:09:41.014Z,21.10
2023-02-03T05:12:10.264Z,21.10
2023-02-03T05:14:39.410Z,22.98
2023-02-03T05:17:13.682Z,22.42
2023-02-03T05:19:43.137Z,21.75
2023-02-03T05:22:22.527Z,21.33
2023-02-03T05:24:53.716Z,20.92
2023-02-03T05:27:23.121Z,22.48
2023-02-03T05:29:52.408Z,23.20
2023-02-03T05:32:26.672Z,21.73
2023-02-03T05:35:05.928Z,22.20
2023-02-03T05:37:35.597Z,23.00
2023-02-03T05:40:21.052Z,21.77
2023-02-03T05:42:51.035Z,21.88
2023-02-03T05:48:02.132Z,21.42
2023-02-03T05:50:33.605Z,22.25
2023-02-03T05:53:11.718Z,22.50
2023-02-03T05:55:47.948Z,23.27
2023-02-03T05:58:17.498Z,21.65
2023-02-03T06:00:47.032Z,23.73
2023-02-03T06:03:16.465Z,21.92
2023-02-03T06:05:45.679Z,20.80
2023-02-03T06:08:14.821Z,22.33
2023-02-03T06:10:43.953Z,22.23
2023-02-03T06:13:20.208Z,22.60
2023-02-03T06:15:49.512Z,21.55
2023-02-03T06:18:18.654Z,21.92
2023-02-03T06:21:00.204Z,21.88
2023-02-03T06:23:29.414Z,21.80
2023-02-03T06:25:59.969Z,21.90
2023-02-03T06:28:33.113Z,20.90
2023-02-03T06:31:08.771Z,23.08
2023-02-03T06:33:38.071Z,22.30
2023-02-03T06:36:07.977Z,22.70
2023-02-03T06:38:37.151Z,23.25
2023-02-03T06:41:06.643Z,23.20
2023-02-03T06:43:43.390Z,22.83
2023-02-03T06:46:14.003Z,23.02
2023-02-03T06:48:43.202Z,23.02
2023-02-03T06:51:12.295Z,22.95
2023-02-03T06:53:54.976Z,23.73
2023-02-03T06:56:24.122Z,23.58
2023-02-03T06:58:55.152Z,23.38
2023-02-03T07:01:25.502Z,24.17
2023-02-03T07:03:57.491Z,21.30
2023-02-03T07:06:28.764Z,22.00
2023-02-03T07:08:59.519Z,21.90
2023-02-03T07:11:30.488Z,21.85
2023-02-03T07:14:06.954Z,22.05
2023-02-03T07:16:37.125Z,22.58
2023-02-03T07:19:12.863Z,22.35
2023-02-03T07:21:42.218Z,22.40
2023-02-03T07:24:11.609Z,22.27
2023-02-03T07:26:46.636Z,22.27
2023-02-03T07:29:17.712Z,23.73
2023-02-03T07:31:52.234Z,22.35
2023-02-03T07:34:21.396Z,22.17
2023-02-03T07:36:55.965Z,21.67
2023-02-03T07:39:26.091Z,20.85
2023-02-03T07:41:55.506Z,21.27
2023-02-03T07:44:27.656Z,21.27
2023-02-03T07:46:57.262Z,21.77
2023-02-03T07:49:26.463Z,21.10
2023-02-03T07:51:56.099Z,21.02
2023-02-03T07:54:25.210Z,20.38
2023-02-03T07:56:54.560Z,19.83
2023-02-03T07:59:23.587Z,19.92
2023-02-03T08:01:55.845Z,20.23
2023-02-03T08:04:25.270Z,22.05
2023-02-03T08:06:54.807Z,23.63
2023-02-03T08:09:24.009Z,21.70
2023-02-03T08:11:53.534Z,20.25
2023-02-03T08:14:23.521Z,21.15
2023-02-03T08:16:54.526Z,19.98
2023-02-03T08:19:23.679Z,20.92
2023-02-03T08:21:52.804Z,19.67
2023-02-03T08:24:22.861Z,20.27
2023-02-03T08:26:52.554Z,18.40
2023-02-03T08:29:26.865Z,17.58
2023-02-03T08:31:59.738Z,18.23
2023-02-03T08:34:29.291Z,17.70
2023-02-03T08:36:58.454Z,15.93
2023-02-03T08:39:27.827Z,18.13
2023-02-03T08:41:57.023Z,18.60
2023-02-03T08:44:26.405Z,17.20
2023-02-03T08:46:58.002Z,16.58
2023-02-03T08:49:29.255Z,16.83
2023-02-03T08:52:04.097Z,16.77
2023-02-03T08:54:33.318Z,16.67
2023-02-03T08:57:05.134Z,17.65
2023-02-03T09:02:18.200Z,19.33
2023-02-03T09:04:49.947Z,19.48
2023-02-03T09:07:19.296Z,20.30
2023-02-03T09:09:48.533Z,19.70
2023-02-03T09:12:22.755Z,19.25
2023-02-03T09:14:52.438Z,21.05
2023-02-03T09:17:23.665Z,21.55
2023-02-03T09:19:52.945Z,20.17
2023-02-03T09:22:22.051Z,21.33
2023-02-03T09:24:56.950Z,20.27
2023-02-03T09:27:26.090Z,21.08
2023-02-03T09:29:55.283Z,19.42
2023-02-03T09:32:33.531Z,19.85
2023-02-03T09:35:02.715Z,19.73
2023-02-03T09:37:32.729Z,19.90
2023-02-03T09:40:08.500Z,21.45
2023-02-03T09:43:05.602Z,19.52
2023-02-03T09:45:40.127Z,19.88
2023-02-03T09:48:18.542Z,19.17
2023-02-03T09:50:50.486Z,18.27
2023-02-03T09:53:29.679Z,18.08
2023-02-03T09:56:01.509Z,17.25
2023-02-03T09:58:35.781Z,16.92
2023-02-03T10:01:10.507Z,16.83
2023-02-03T10:03:53.937Z,15.82
2023-02-03T10:06:33.529Z,15.88
2023-02-03T10:09:21.362Z,15.18
2023-02-03T10:12:05.752Z,15.15
2023-02-03T10:14:48.319Z,15.27
2023-02-03T10:17:30.000Z,13.20
2023-02-03T10:20:06.626Z,14.98
2023-02-03T10:22:42.491Z,14.55
2023-02-03T10:25:24.392Z,14.63
2023-02-03T10:30:25.694Z,13.40
2023-02-03T10:32:57.702Z,13.95
2023-02-03T10:38:01.125Z,13.38
2023-02-03T10:40:31.266Z,14.73
2023-02-03T10:43:13.959Z,13.77
2023-02-03T10:45:43.259Z,13.65
2023-02-03T10:48:17.665Z,13.02
2023-02-03T10:50:52.055Z,12.65
2023-02-03T10:53:28.460Z,12.57
2023-02-03T10:56:07.135Z,12.75
2023-02-03T10:58:38.348Z,11.77
2023-02-03T11:01:19.716Z,12.07
2023-02-03T11:03:59.821Z,13.07
2023-02-03T11:06:32.462Z,12.85
2023-02-03T11:09:26.038Z,11.95
2023-02-03T11:12:14.124Z,12.05
2023-02-03T11:14:44.940Z,12.75
2023-02-03T11:17:19.231Z,12.73
2023-02-03T11:19:50.399Z,12.48
2023-02-03T11:22:32.607Z,13.00
2023-02-03T11:27:34.996Z,11.68
2023-02-03T11:30:17.089Z,12.38
2023-02-03T11:35:24.631Z,12.57
2023-02-03T11:37:57.060Z,11.90
2023-02-03T11:40:28.313Z,12.07
2023-02-03T11:43:06.947Z,12.68
2023-02-03T11:45:42.205Z,11.48
2023-02-03T11:48:30.270Z,12.40
2023-02-03T11:51:11.747Z,12.75
2023-02-03T11:53:59.846Z,12.48
2023-02-03T11:56:37.908Z,12.40
2023-02-03T11:59:37.589Z,12.75
2023-02-03T12:02:43.906Z,12.05
2023-02-03T12:05:31.038Z,11.75
2023-02-03T12:08:18.066Z,10.73
2023-02-03T12:11:02.964Z,10.38
2023-02-03T12:14:10.030Z,10.10
2023-02-03T12:17:05.986Z,10.43
2023-02-03T12:19:49.852Z,10.02
2023-02-03T12:22:27.985Z,9.65
2023-02-03T12:25:06.198Z,9.60
2023-02-03T12:27:48.630Z,9.25
2023-02-03T12:32:55.808Z,8.50
2023-02-03T12:35:32.085Z,9.15
2023-02-03T12:38:07.305Z,8.35
2023-02-03T12:40:41.999Z,8.32
2023-02-03T12:43:29.548Z,9.00
2023-02-03T12:46:03.178Z,8.57
2023-02-03T12:53:54.177Z,8.82
2023-02-03T12:56:29.625Z,8.98
2023-02-03T12:59:09.856Z,10.20
2023-02-03T13:01:46.918Z,10.75
2023-02-03T13:04:32.040Z,11.35
2023-02-03T13:07:10.311Z,10.25
2023-02-03T13:09:54.959Z,10.27
2023-02-03T13:12:31.583Z,9.93
2023-02-03T13:15:14.103Z,10.15
2023-02-03T13:17:50.365Z,9.30
2023-02-03T13:20:24.206Z,10.70
2023-02-03T13:22:53.893Z,10.75
2023-02-03T13:25:29.115Z,10.52
2023-02-03T13:28:20.268Z,10.13
2023-02-03T13:31:15.027Z,9.93
2023-02-03T13:34:04.026Z,10.07
2023-02-03T13:37:01.124Z,9.85
2023-02-03T13:39:53.500Z,10.85
2023-02-03T13:42:28.248Z,9.57
2023-02-03T13:45:01.914Z,10.50
2023-02-03T13:47:34.668Z,9.95
2023-02-03T13:50:07.163Z,9.40
2023-02-03T13:52:42.302Z,12.15
2023-02-03T13:55:31.047Z,11.68
2023-02-03T13:58:03.879Z,11.10
2023-02-03T14:01:03.358Z,10.88
2023-02-03T14:03:48.754Z,10.70
2023-02-03T14:07:02.239Z,11.43
2023-02-03T14:10:23.516Z,10.70
2023-02-03T14:13:03.995Z,9.80
2023-02-03T14:15:39.237Z,10.68
2023-02-03T14:18:36.718Z,11.10
2023-02-03T14:21:14.839Z,11.80
2023-02-03T14:23:49.945Z,12.93
2023-02-03T14:26:36.007Z,12.05
2023-02-03T14:29:10.711Z,13.82
2023-02-03T14:31:57.249Z,12.48
2023-02-03T14:34:39.638Z,12.32
2023-02-03T14:37:16.452Z,13.07
2023-02-03T14:40:15.206Z,12.90
2023-02-03T14:43:22.380Z,13.60
2023-02-03T14:46:18.788Z,12.65
2023-02-03T14:48:59.631Z,13.93
2023-02-03T14:51:47.152Z,14.02
2023-02-03T14:54:31.196Z,13.30
2023-02-03T14:57:19.208Z,14.57
2023-02-03T14:59:52.068Z,13.63
2023-02-03T15:02:31.761Z,14.13
2023-02-03T15:05:36.412Z,14.77
2023-02-03T15:08:06.121Z,14.48
2023-02-03T15:10:44.247Z,15.27
2023-02-03T15:16:19.679Z,15.38
2023-02-03T15:18:57.428Z,15.25
2023-02-03T15:21:27.124Z,14.25
2023-02-03T15:23:56.737Z,15.27
2023-02-03T15:26:28.647Z,14.75
2023-02-03T15:29:01.897Z,16.55
2023-02-03T15:31:35.795Z,16.42
2023-02-03T15:34:12.990Z,14.10
2023-02-03T15:36:47.635Z,15.18
2023-02-03T15:39:24.129Z,15.73
2023-02-03T15:41:56.564Z,16.50
2023-02-03T15:44:32.526Z,15.85
2023-02-03T15:47:05.826Z,16.35
2023-02-03T15:49:42.313Z,16.90
2023-02-03T15:52:17.427Z,16.05
2023-02-03T15:54:58.958Z,15.95
2023-02-03T15:57:38.483Z,14.77
2023-02-03T16:00:25.911Z,16.42
2023-02-03T16:02:57.765Z,15.85
2023-02-03T16:05:32.045Z,16.23
2023-02-03T16:08:31.233Z,15.07
2023-02-03T16:13:35.630Z,14.98
2023-02-03T16:16:09.965Z,16.08
2023-02-03T16:18:58.228Z,15.57
2023-02-03T16:21:35.565Z,16.00
2023-02-03T16:24:45.752Z,15.45
2023-02-03T16:27:33.813Z,16.38
2023-02-03T16:30:36.519Z,16.55
2023-02-03T16:33:31.238Z,16.13
2023-02-03T16:36:26.308Z,17.73
2023-02-03T16:39:10.451Z,16.35
2023-02-03T16:41:52.961Z,15.20
2023-02-03T16:44:35.078Z,15.55
2023-02-03T16:47:18.395Z,14.35
2023-02-03T16:50:00.493Z,15.00
2023-02-03T16:55:00.817Z,15.70
2023-02-03T16:59:59.331Z,14.48
2023-02-03T17:02:28.517Z,15.50
2023-02-03T17:04:58.191Z,14.77
2023-02-03T17:07:27.994Z,14.52
2023-02-03T17:09:57.253Z,15.85
2023-02-03T17:12:30.809Z,14.40
2023-02-03T17:15:00.176Z,14.93
2023-02-03T17:17:29.699Z,14.30
2023-02-03T17:20:05.307Z,14.50
2023-02-03T17:22:34.574Z,13.88
2023-02-03T17:25:03.942Z,13.93
2023-02-03T17:27:35.671Z,14.65
2023-02-03T17:30:05.151Z,13.88
2023-02-03T17:32:34.561Z,14.15
2023-02-03T17:35:03.815Z,14.70
2023-02-03T17:37:35.054Z,14.18
2023-02-03T17:54:04.399Z,14.07
2023-02-03T17:56:36.137Z,13.50
2023-02-03T17:59:07.644Z,12.65
2023-02-03T18:01:38.190Z,12.50
2023-02-03T18:04:08.427Z,13.68
2023-02-03T18:06:37.904Z,14.02
2023-02-03T18:09:09.770Z,12.35
2023-02-03T18:11:39.821Z,12.77
2023-02-03T18:14:13.286Z,12.75
2023-02-03T18:16:44.023Z,12.98
2023-02-03T18:19:16.255Z,13.15
2023-02-03T18:21:47.107Z,12.25
2023-02-03T18:24:21.935Z,12.27
2023-02-03T18:26:53.056Z,12.68
2023-02-03T18:29:24.447Z,12.47
2023-02-03T18:31:53.746Z,11.90
2023-02-03T18:34:23.438Z,12.68
2023-02-03T18:36:57.771Z,13.30
2023-02-03T18:39:27.122Z,12.82
2023-02-03T18:41:56.268Z,12.20
2023-02-03T18:44:27.498Z,12.32
2023-02-03T18:47:04.837Z,12.68
2023-02-03T18:49:36.307Z,13.25
2023-02-03T18:52:06.464Z,9.67
2023-02-03T18:54:35.587Z,8.73
2023-02-03T18:57:05.430Z,7.90
2023-02-03T18:59:36.578Z,5.70
2023-02-03T19:02:05.927Z,5.22
2023-02-03T19:04:35.785Z,4.93
2023-02-03T19:07:05.048Z,4.05
2023-02-03T19:09:34.685Z,4.15
2023-02-03T19:12:04.531Z,4.07
2023-02-03T19:14:42.069Z,4.03
2023-02-03T19:17:11.902Z,3.97
2023-02-03T19:22:16.582Z,4.70
2023-02-03T19:24:45.709Z,4.88
2023-02-03T19:27:14.997Z,5.22
2023-02-03T19:29:45.997Z,5.55
2023-02-03T19:32:15.591Z,6.28
2023-02-03T19:34:49.790Z,6.20
2023-02-03T19:37:19.151Z,5.78
2023-02-03T19:39:51.115Z,5.45
2023-02-03T19:42:20.493Z,5.65
2023-02-03T19:44:52.181Z,5.82
2023-02-03T19:47:21.399Z,6.13
2023-02-03T19:49:50.634Z,5.47
2023-02-03T19:52:20.002Z,6.38
2023-02-03T19:54:51.789Z,6.35
2023-02-03T19:59:58.272Z,5.82
2023-02-03T20:02:27.647Z,6.07
2023-02-03T20:04:57.180Z,6.38
2023-02-03T20:07:28.119Z,6.03
2023-02-03T20:10:02.770Z,6.20
2023-02-03T20:12:32.611Z,7.47
2023-02-03T20:15:04.186Z,5.50
2023-02-03T20:17:33.649Z,5.00
2023-02-03T20:20:03.836Z,5.78
2023-02-03T20:22:33.926Z,5.53
2023-02-03T20:25:03.099Z,5.28
2023-02-03T20:27:32.606Z,5.30
2023-02-03T20:30:03.924Z,5.43
2023-02-03T20:32:34.063Z,5.65
2023-02-03T20:35:03.684Z,5.90
2023-02-03T20:37:35.600Z,6.47
2023-02-03T20:40:05.567Z,6.47
2023-02-03T20:42:35.767Z,6.82
2023-02-03T20:45:12.534Z,6.97
2023-02-03T20:47:47.288Z,7.60
2023-02-03T20:50:21.727Z,7.70
2023-02-03T20:52:58.466Z,8.10
2023-02-03T20:55:35.752Z,8.18
2023-02-03T20:58:06.622Z,8.05
2023-02-03T21:00:39.191Z,8.45
2023-02-03T21:03:29.175Z,8.80
2023-02-03T21:05:58.999Z,9.00
2023-02-03T21:08:33.833Z,9.10
2023-02-03T21:11:03.031Z,8.45
2023-02-03T21:13:37.583Z,8.05
2023-02-03T21:16:18.189Z,8.00
2023-02-03T21:18:50.862Z,6.38
2023-02-03T21:21:24.606Z,6.55
2023-02-03T21:24:00.232Z,6.68
2023-02-03T21:26:32.391Z,6.28
2023-02-03T21:29:03.595Z,6.15
2023-02-03T21:31:36.109Z,6.47
2023-02-03T21:36:55.163Z,6.85
2023-02-03T21:39:30.560Z,7.28
2023-02-03T21:42:04.488Z,6.28
2023-02-03T21:44:42.767Z,6.10
2023-02-03T21:47:19.264Z,5.65
2023-02-03T21:49:53.608Z,5.28
2023-02-03T21:52:22.662Z,4.20
2023-02-03T21:54:51.997Z,3.97
2023-02-03T21:57:22.302Z,4.25
2023-02-03T21:59:51.424Z,3.60
2023-02-03T22:02:49.637Z,3.70
2023-02-03T22:05:18.897Z,3.33
2023-02-03T22:07:47.905Z,3.20
2023-02-03T22:10:17.616Z,3.85
2023-02-03T22:12:46.729Z,3.25
2023-02-03T22:15:16.048Z,3.30
2023-02-03T22:17:49.338Z,3.53
2023-02-03T22:20:18.659Z,3.85
2023-02-03T22:25:29.225Z,3.58
2023-02-03T22:28:03.382Z,3.20
2023-02-03T22:30:33.178Z,3.78
2023-02-03T22:33:04.444Z,3.65
2023-02-03T22:35:33.933Z,3.80
2023-02-03T22:38:03.074Z,3.85
2023-02-03T22:40:32.857Z,3.50
2023-02-03T22:43:02.670Z,4.05
2023-02-03T22:45:32.167Z,3.65
2023-02-03T22:48:01.329Z,3.80
2023-02-03T22:50:35.910Z,3.80
2023-02-03T22:53:06.643Z,4.13
2023-02-03T22:55:35.730Z,3.90
2023-02-03T22:58:05.350Z,4.05
2023-02-03T23:00:39.583Z,4.00
2023-02-03T23:03:09.208Z,3.85
2023-02-03T23:05:40.304Z,3.58
2023-02-03T23:08:09.492Z,3.72
2023-02-03T23:10:38.687Z,3.50
2023-02-03T23:15:53.484Z,4.38
2023-02-03T23:18:22.644Z,4.15
2023-02-03T23:20:53.776Z,4.28
2023-02-03T23:23:23.089Z,4.88
2023-02-03T23:25:52.112Z,4.95
2023-02-03T23:28:21.699Z,4.93
2023-02-03T23:30:52.168Z,5.13
2023-02-03T23:33:21.767Z,5.20
2023-02-03T23:35:50.242Z,5.22
2023-02-03T23:38:21.280Z,5.55
2023-02-03T23:40:50.733Z,5.78
2023-02-03T23:43:20.926Z,6.20
2023-02-03T23:45:50.062Z,5.90
2023-02-03T23:48:19.210Z,6.05
2023-02-03T23:50:48.669Z,5.68
2023-02-03T23:53:17.808Z,5.97
2023-02-03T23:55:55.263Z,6.45
2023-02-03T23:58:24.638Z,6.47
